Latest Weather Observations for Cape Bruny AWS

IDT60801

Issued at 8:35 am EDT Friday 24 October 2014 (issued every 30 minutes, with the page automatically refreshed every 10 minutes)

About weather observations | Map of weather stations | Latest weather observations for TAS | Other Formats
Station Details ID: 094198 Name: CAPE BRUNY (CAPE BRUNY) Lat: -43.49 Lon: 147.14 Height: 59.7 m
Data from the previous 72 hours. | See also: Recent months at Cape Bruny AWS
Date/Time
EDT
Temp
°C
App
Temp
°C
Dew
Point
Rel
Hum
%
Delta-T
°C
Wind Press
QNH
hPa
Press
MSL
hPa
Rain
since 9 am
mm
Dir
 
Spd
km/h
Gust
km/h
Spd
kts
Gust
kts
24/08:30am 11.8 5.6 6.3 69 2.6 NNE 28 43 15 23 1017.5 1017.6 0.0
24/08:00am 11.9 6.4 6.0 67 2.8 NNE 24 41 13 22 1018.1 1018.2 0.0
24/07:30am 10.8 4.5 5.6 70 2.4 NNE 28 46 15 25 1018.3 1018.4 0.0
24/07:29am 10.8 4.5 5.6 70 2.4 NNE 28 46 15 25 1018.3 1018.4 0.0
24/07:00am 10.1 5.5 5.5 73 2.1 NNE 19 30 10 16 1018.5 1018.6 0.0
24/06:30am 9.3 3.3 5.1 75 1.9 NE 26 35 14 19 1018.8 1018.9 0.0
24/06:00am 8.6 3.9 5.0 78 1.6 NE 19 30 10 16 1019.6 1019.6 0.0
24/05:30am 8.8 4.0 4.8 76 1.8 NNE 19 32 10 17 1019.7 1019.7 0.0
24/05:00am 9.0 3.3 4.8 75 1.9 NNE 24 35 13 19 1020.1 1020.1 0.0
24/04:30am 8.9 3.6 4.9 76 1.8 NNE 22 30 12 16 1020.3 1020.3 0.0
24/04:00am 8.8 3.5 4.8 76 1.8 NNE 22 32 12 17 1020.6 1020.6 0.0
24/03:30am 8.9 3.2 4.7 75 1.9 NE 24 37 13 20 1021.2 1021.2 0.0
24/03:00am 9.1 3.7 4.7 74 2.0 NNE 22 37 12 20 1021.8 1021.8 0.0
24/02:30am 8.9 3.2 4.7 75 1.9 NE 24 37 13 20 1021.8 1021.8 0.0
24/02:00am 9.0 3.3 4.8 75 1.9 NNE 24 35 13 19 1022.3 1022.3 0.0
24/01:30am 9.2 3.1 4.6 73 2.0 NNE 26 41 14 22 1022.5 1022.5 0.0
24/01:00am 9.3 3.6 4.7 73 2.0 NNE 24 39 13 21 1022.8 1022.8 0.0
24/12:30am 9.4 4.4 4.8 73 2.1 NNE 20 33 11 18 1023.2 1023.2 0.0
24/12:00am 9.6 3.9 5.0 73 2.1 NE 24 39 13 21 1023.6 1023.6 0.0
 
Date/Time
EDT
Temp
°C
App
Temp
°C
Dew
Point
Rel
Hum
%
Delta-T
°C
Wind Press
QNH
hPa
Press
MSL
hPa
Rain
since 9 am
mm
Dir
 
Spd
km/h
Gust
km/h
Spd
kts
Gust
kts
23/11:30pm 9.5 4.6 5.3 75 1.9 NE 20 32 11 17 1023.8 1023.8 0.0
23/11:00pm 9.7 4.8 5.3 74 2.0 NNE 20 30 11 16 1024.0 1024.0 0.0
23/10:30pm 9.6 4.7 5.0 73 2.1 NE 20 32 11 17 1023.9 1023.9 0.0
23/10:00pm 9.4 5.0 4.8 73 2.0 NNE 17 26 9 14 1024.2 1024.2 0.0
23/09:30pm 9.6 4.7 5.0 73 2.1 NE 20 32 11 17 1024.2 1024.2 0.0
23/09:00pm 9.3 4.6 5.1 75 1.9 NE 19 28 10 15 1024.4 1024.4 0.0
23/08:30pm 9.2 5.2 4.8 74 2.0 NE 15 19 8 10 1024.7 1024.7 0.0
23/08:00pm 9.4 5.0 4.8 73 2.0 ENE 17 20 9 11 1024.5 1024.5 0.0
23/07:30pm 10.1 5.2 4.9 70 2.3 ENE 20 32 11 17 1024.7 1024.7 0.0
23/07:00pm 10.9 4.9 5.4 69 2.5 ENE 26 39 14 21 1024.6 1024.6 0.0
23/06:30pm 11.6 6.0 5.3 65 2.9 ENE 24 32 13 17 1024.8 1024.8 0.0
23/06:00pm 12.2 6.6 5.4 63 3.1 ENE 24 28 13 15 1024.8 1024.8 0.0
23/05:30pm 12.2 5.0 6.0 66 2.9 E 33 43 18 23 1024.5 1024.5 0.0
23/05:00pm 12.5 5.3 5.7 63 3.2 ESE 33 39 18 21 1024.5 1024.5 0.0
23/04:30pm 13.0 6.6 5.2 59 3.6 E 28 41 15 22 1024.4 1024.4 0.0
23/04:00pm 13.7 8.5 5.3 57 3.9 E 22 32 12 17 1024.5 1024.5 0.0
23/03:30pm 14.0 8.7 4.9 54 4.2 E 22 32 12 17 1024.6 1024.6 0.0
23/03:00pm 13.9 8.2 4.8 54 4.2 E 24 30 13 16 1024.7 1024.7 0.0
23/02:30pm 13.1 6.0 5.5 60 3.6 ESE 32 37 17 20 1024.9 1024.9 0.0
23/02:00pm 13.0 5.7 5.4 60 3.5 ESE 33 39 18 21 1025.1 1025.1 0.0
23/01:30pm 13.4 6.5 4.8 56 4.0 ESE 30 35 16 19 1025.4 1025.4 0.0
23/01:00pm 13.6 7.6 5.5 58 3.8 ESE 26 32 14 17 1025.5 1025.5 0.0
23/12:30pm 13.6 8.4 5.3 57 3.9 ESE 22 28 12 15 1025.7 1025.7 0.0
23/12:00pm 13.1 8.1 4.5 56 3.9 ESE 20 24 11 13 1026.1 1026.1 0.0
23/11:30am 13.1 8.7 4.5 56 3.9 ESE 17 20 9 11 1026.4 1026.4 0.0
23/11:00am 12.5 8.1 4.5 58 3.6 ESE 17 24 9 13 1026.5 1026.5 0.0
23/10:30am 12.4 8.0 4.6 59 3.6 E 17 26 9 14 1026.4 1026.4 0.0
23/10:00am 11.6 7.1 4.1 60 3.3 ESE 17 24 9 13 1026.3 1026.3 0.0
23/09:30am 11.4 8.1 4.4 62 3.2 SE 11 17 6 9 1026.0 1026.0 0.0
23/09:00am 11.1 7.8 4.3 63 3.0 S 11 17 6 9 1026.0 1026.0 0.0
23/08:30am 10.8 6.6 4.0 63 3.0 SSE 15 20 8 11 1025.9 1025.9 0.0
23/08:00am 10.2 5.3 3.9 65 2.8 S 19 26 10 14 1025.6 1025.6 0.0
23/07:30am 10.3 5.8 4.0 65 2.8 S 17 24 9 13 1025.1 1025.1 0.0
23/07:00am 10.2 5.1 3.9 65 2.8 SSE 20 26 11 14 1024.5 1024.5 0.0
23/06:30am 10.1 6.1 4.7 69 2.4 S 15 24 8 13 1024.2 1024.2 0.0
23/06:00am 9.8 4.3 3.8 66 2.6 S 22 32 12 17 1023.9 1023.9 0.0
23/05:30am 10.0 5.0 4.6 69 2.4 S 20 35 11 19 1023.5 1023.5 0.0
23/05:00am 9.9 4.5 4.7 70 2.3 S 22 37 12 20 1023.0 1023.0 0.0
23/04:30am 10.4 5.4 4.5 67 2.6 SW 20 26 11 14 1022.5 1022.5 0.0
23/04:00am 10.5 5.1 4.6 67 2.6 S 22 35 12 19 1022.4 1022.4 0.0
23/03:30am 10.6 5.8 4.9 68 2.6 SW 19 32 10 17 1022.2 1022.2 0.0
23/03:00am 10.8 7.0 5.8 71 2.3 SSW 15 28 8 15 1022.3 1022.3 0.0
23/02:30am 10.7 4.7 5.3 69 2.5 SW 26 35 14 19 1022.4 1022.4 0.0
23/02:00am 10.7 4.1 6.1 73 2.1 SW 30 39 16 21 1022.4 1022.4 0.0
23/01:30am 10.5 5.3 7.4 81 1.5 SW 24 35 13 19 1022.5 1022.5 0.0
23/01:00am 10.6 6.6 6.7 77 1.8 S 17 24 9 13 1022.3 1022.3 0.0
23/12:30am 10.6 5.9 7.8 83 1.4 SW 22 41 12 22 1022.0 1022.0 0.0
23/12:00am 10.6 5.1 9.0 90 0.8 WSW 28 48 15 26 1021.6 1021.6 0.0
 
Date/Time
EDT
Temp
°C
App
Temp
°C
Dew
Point
Rel
Hum
%
Delta-T
°C
Wind Press
QNH
hPa
Press
MSL
hPa
Rain
since 9 am
mm
Dir
 
Spd
km/h
Gust
km/h
Spd
kts
Gust
kts
22/11:30pm 11.2 5.1 9.6 90 0.8 SW 32 43 17 23 1021.0 1021.0 0.0
22/11:00pm 11.8 5.7 9.9 88 1.0 WSW 32 44 17 24 1020.6 1020.6 0.0
22/10:30pm 12.6 8.1 10.0 84 1.3 WSW 24 35 13 19 1020.0 1020.0 0.0
22/10:00pm 12.6 6.7 10.3 86 1.2 WSW 32 46 17 25 1019.7 1019.7 0.0
22/09:30pm 12.6 6.7 10.3 86 1.2 WSW 32 48 17 26 1019.0 1019.1 0.0
22/09:00pm 12.4 4.2 10.5 88 1.0 WSW 44 57 24 31 1018.3 1018.4 0.0
22/08:30pm 12.8 6.1 10.9 88 1.0 WSW 37 50 20 27 1018.0 1018.1 0.0
22/08:00pm 13.3 4.9 11.0 86 1.2 WSW 46 61 25 33 1016.9 1017.0 0.0
22/07:30pm 13.8 5.8 11.1 84 1.4 WSW 44 57 24 31 1016.2 1016.3 0.0
22/07:10pm 14.1 6.7 11.1 82 1.6 WSW 41 59 22 32 1015.5 1015.6 0.0
22/07:00pm 14.4 6.9 11.0 80 1.8 WSW 41 56 22 30 1015.4 1015.5 0.0
22/06:30pm 15.2 8.9 11.2 77 2.1 WSW 35 57 19 31 1014.5 1014.6 0.0
22/06:00pm 15.5 9.7 10.9 74 2.5 WSW 32 48 17 26 1014.5 1014.6 0.0
22/05:52pm 15.0 9.5 10.4 74 2.4 WSW 30 48 16 26 1014.5 1014.6 0.0
22/05:30pm 14.2 10.1 10.2 77 2.1 SW 22 33 12 18 1014.8 1014.9 0.0
22/05:00pm 14.4 12.1 9.0 70 2.8 S 11 19 6 10 1013.8 1013.9 0.0
22/04:30pm 15.1 12.7 8.8 66 3.2 SSW 11 20 6 11 1015.0 1015.1 0.0
22/04:00pm 16.0 10.9 7.5 57 4.2 WSW 24 37 13 20 1014.8 1014.9 0.0
22/03:30pm 17.1 14.2 8.3 56 4.5 SW 13 24 7 13 1015.1 1015.2 0.0
22/03:00pm 17.9 15.7 9.3 57 4.5 W 11 17 6 9 1014.5 1014.6 0.0
22/02:30pm 20.3 17.9 7.0 42 6.8 WSW 9 15 5 8 1014.4 1014.5 0.0
22/02:00pm 19.8 16.8 3.9 35 7.6 W 9 11 5 6 1013.9 1014.0 0.0
22/01:30pm 21.8 19.4 4.4 32 8.5 WNW 6 13 3 7 1014.5 1014.6 0.0
22/01:00pm 19.0 15.8 6.8 45 6.1 E 13 15 7 8 1014.4 1014.5 0.0
22/12:30pm 19.6 16.2 6.0 41 6.8 ESE 13 17 7 9 1015.2 1015.3 0.0
22/12:00pm 18.3 15.1 5.2 42 6.3 ESE 11 15 6 8 1015.6 1015.7 0.0
22/11:30am 20.0 16.3 6.4 41 6.8 NE 15 20 8 11 1016.1 1016.2 0.0
22/11:00am 18.8 13.7 4.2 38 7.0 N 20 28 11 15 1016.5 1016.6 0.0
22/10:30am 17.1 11.6 5.7 47 5.5 N 24 35 13 19 1016.8 1016.9 0.0
22/10:00am 16.0 11.3 5.9 51 4.9 N 20 28 11 15 1017.3 1017.4 0.0
22/09:30am 14.8 9.3 6.1 56 4.2 N 24 30 13 16 1017.7 1017.8 0.0
22/09:00am 12.9 7.6 4.8 58 3.7 N 22 32 12 17 1017.6 1017.7 0.0
22/08:30am 13.2 8.5 6.1 62 3.4 N 20 28 11 15 1018.2 1018.3 0.0
22/08:00am 12.7 7.3 6.3 65 3.0 N 24 32 13 17 1018.3 1018.4 0.0
22/07:30am 11.9 7.4 6.8 71 2.4 N 20 32 11 17 1018.5 1018.6 0.0
22/07:00am 11.1 6.1 6.6 74 2.1 N 22 30 12 16 1018.5 1018.6 0.0
22/06:30am 10.8 5.6 7.3 79 1.7 N 24 37 13 20 1018.6 1018.7 0.0
22/06:00am 10.3 5.1 7.2 81 1.5 N 24 33 13 18 1018.7 1018.8 0.0
22/05:30am 10.3 5.9 6.5 77 1.8 N 19 28 10 15 1018.7 1018.8 0.0
22/05:00am 10.7 5.2 7.4 80 1.6 N 26 39 14 21 1018.7 1018.8 0.0
22/04:30am 11.0 4.9 6.7 75 2.0 N 28 37 15 20 1019.2 1019.2 0.0
22/04:00am 11.2 5.6 7.1 76 2.0 N 26 35 14 19 1019.7 1019.7 0.0
22/03:30am 11.2 6.3 7.1 76 2.0 N 22 35 12 19 1020.2 1020.2 0.0
22/03:00am 11.5 7.1 7.2 75 2.1 N 20 32 11 17 1020.8 1020.8 0.0
22/02:30am 12.0 6.0 7.1 72 2.4 N 28 37 15 20 1021.1 1021.1 0.0
22/02:00am 11.8 5.9 7.7 76 2.0 N 28 37 15 20 1021.8 1021.8 0.0
22/01:30am 12.0 6.1 7.7 75 2.1 N 28 35 15 19 1022.4 1022.4 0.0
22/01:00am 12.1 6.4 8.2 77 1.9 NNE 28 37 15 20 1023.0 1023.0 0.0
22/12:30am 12.2 7.2 8.1 76 2.0 NNE 24 35 13 19 1023.3 1023.3 0.0
22/12:00am 12.0 7.8 8.1 77 1.9 N 20 30 11 16 1023.6 1023.6 0.0
 
Date/Time
EDT
Temp
°C
App
Temp
°C
Dew
Point
Rel
Hum
%
Delta-T
°C
Wind Press
QNH
hPa
Press
MSL
hPa
Rain
since 9 am
mm
Dir
 
Spd
km/h
Gust
km/h
Spd
kts
Gust
kts
21/11:30pm 12.0 7.4 8.1 77 1.9 NNE 22 35 12 19 1024.1 1024.1 0.0
21/11:00pm 11.4 7.3 7.9 79 1.7 NE 19 24 10 13 1024.7 1024.7 0.0
21/10:30pm 11.3 9.0 7.6 78 1.8 E 9 15 5 8 1025.0 1025.0 0.0
21/10:00pm 11.3 7.9 7.6 78 1.8 NNE 15 20 8 11 1025.5 1025.5 0.0
21/09:30pm 11.0 8.6 7.1 77 1.9 N 9 11 5 6 1026.0 1026.0 0.0
21/09:00pm 11.2 8.6 6.3 72 2.3 NNE 9 9 5 5 1026.1 1026.1 0.0
21/08:30pm 12.0 8.8 6.7 70 2.5 NNE 13 15 7 8 1026.2 1026.2 0.0
21/08:00pm 12.5 8.9 6.8 68 2.7 NNE 15 17 8 9 1026.4 1026.4 0.0
21/07:30pm 13.1 9.9 6.7 65 3.1 NNE 13 15 7 8 1026.5 1026.5 0.0
21/07:00pm 15.4 13.6 7.2 58 4.0 NW 6 9 3 5 1026.7 1026.7 0.0
21/06:30pm 16.1 14.3 7.8 58 4.2 ESE 7 9 4 5 1026.6 1026.6 0.0
21/06:00pm 16.4 14.7 7.6 56 4.4 SE 6 11 3 6 1027.0 1027.1 0.0
21/05:30pm 17.0 14.9 8.4 57 4.4 SE 9 13 5 7 1027.3 1027.4 0.0
21/05:00pm 16.8 13.2 8.2 57 4.4 SE 17 22 9 12 1027.3 1027.4 0.0
21/04:30pm 17.2 13.7 8.6 57 4.4 ESE 17 24 9 13 1027.6 1027.7 0.0
21/04:00pm 18.5 14.4 6.4 45 6.0 NNE 17 24 9 13 1028.0 1028.1 0.0
21/03:30pm 18.3 14.2 6.2 45 6.0 NE 17 28 9 15 1028.2 1028.3 0.0
21/03:00pm 18.4 13.8 6.6 46 5.8 ENE 20 28 11 15 1028.7 1028.8 0.0
21/02:30pm 18.2 13.8 4.7 41 6.5 NNE 17 24 9 13 1029.3 1029.4 0.0
21/02:00pm 16.3 12.4 7.0 54 4.6 SE 17 20 9 11 1030.0 1030.1 0.0
21/01:30pm 15.9 12.7 6.9 55 4.4 SE 13 20 7 11 1030.4 1030.5 0.0
21/01:00pm 14.9 11.3 5.1 52 4.6 ESE 13 20 7 11 1030.8 1030.9 0.0
21/12:30pm 15.5 12.7 6.8 56 4.3 SSE 11 15 6 8 1031.1 1031.2 0.0
21/12:00pm 16.0 13.4 6.2 52 4.7 SSE 9 13 5 7 1031.5 1031.6 0.0
21/11:30am 15.5 11.9 4.8 49 5.0 NE 13 19 7 10 1031.8 1031.9 0.0
21/11:00am 15.4 12.0 6.1 54 4.5 NNE 13 20 7 11 1032.2 1032.3 0.0
21/10:30am 13.7 9.3 4.6 54 4.2 NNE 17 20 9 11 1032.5 1032.6 0.0
21/10:00am 12.4 7.4 4.6 59 3.5 N 20 28 11 15 1032.8 1032.9 0.0
21/09:30am 11.1 5.8 5.0 66 2.8 N 22 30 12 16 1032.9 1033.0 0.0
21/09:00am 10.5 5.2 5.1 69 2.4 N 22 30 12 16 1033.1 1033.2 0.0

Other Formats:

Comma delimited format used in spreadsheet applications
http://www.bom.gov.au/fwo/IDT60801/IDT60801.95967.axf

JavaScript Object Notation format (JSON) in row-major order
http://www.bom.gov.au/fwo/IDT60801/IDT60801.95967.json